createdAt,value
2022-11-01T00:00:58.764Z,995.31
2022-11-01T00:06:02.916Z,995.14
2022-11-01T00:11:07.114Z,995.08
2022-11-01T00:16:11.275Z,994.97
2022-11-01T00:21:15.415Z,995.06
2022-11-01T00:26:19.556Z,994.93
2022-11-01T00:31:23.745Z,994.80
2022-11-01T00:36:28.089Z,994.61
2022-11-01T00:41:32.055Z,994.26
2022-11-01T00:46:36.252Z,993.88
2022-11-01T00:51:40.356Z,994.08
2022-11-01T00:56:44.523Z,992.51
2022-11-01T01:01:48.869Z,991.71
2022-11-01T01:11:57.020Z,990.63
2022-11-01T01:17:01.175Z,990.25
2022-11-01T01:22:05.521Z,990.00
2022-11-01T01:27:09.476Z,989.91
2022-11-01T01:32:13.624Z,989.71
2022-11-01T01:37:17.844Z,989.96
2022-11-01T01:42:22.058Z,989.92
2022-11-01T01:47:26.143Z,989.93
2022-11-01T01:52:30.286Z,990.07
2022-11-01T01:57:34.477Z,989.91
2022-11-01T02:02:38.623Z,990.19
2022-11-01T02:07:42.818Z,990.10
2022-11-01T02:12:46.937Z,990.30
2022-11-01T02:17:51.087Z,990.48
2022-11-01T02:22:55.247Z,990.40
2022-11-01T02:27:59.419Z,990.63
2022-11-01T02:33:03.807Z,990.68
2022-11-01T02:38:07.741Z,990.86
2022-11-01T02:43:11.864Z,990.90
2022-11-01T02:48:16.042Z,990.83
2022-11-01T02:53:20.175Z,990.79
2022-11-01T02:58:24.337Z,990.72
2022-11-01T03:03:28.754Z,990.62
2022-11-01T03:08:32.660Z,990.61
2022-11-01T03:13:36.821Z,990.37
2022-11-01T03:18:40.982Z,990.18
2022-11-01T03:23:45.164Z,990.09
2022-11-01T03:28:47.428Z,989.98
2022-11-01T03:33:51.583Z,989.96
2022-11-01T03:38:55.747Z,989.98
2022-11-01T03:43:59.921Z,989.69
2022-11-01T03:49:04.056Z,990.01
2022-11-01T03:54:08.203Z,990.01
2022-11-01T03:59:12.406Z,989.90
2022-11-01T04:04:16.594Z,989.99
2022-11-01T04:09:20.713Z,989.81
2022-11-01T04:14:24.865Z,989.89
2022-11-01T04:19:29.031Z,990.06
2022-11-01T04:24:33.182Z,989.81
2022-11-01T04:29:37.342Z,989.75
2022-11-01T04:34:41.479Z,989.80
2022-11-01T04:39:45.696Z,989.71
2022-11-01T04:44:49.840Z,989.68
2022-11-01T04:49:53.977Z,989.60
2022-11-01T04:54:58.109Z,989.73
2022-11-01T05:00:02.325Z,989.76
2022-11-01T05:05:06.468Z,989.83
2022-11-01T05:10:10.643Z,989.79
2022-11-01T05:15:14.798Z,989.72
2022-11-01T05:20:18.940Z,989.91
2022-11-01T05:25:23.085Z,990.06
2022-11-01T05:30:27.235Z,990.09
2022-11-01T05:35:31.421Z,989.99
2022-11-01T05:40:35.596Z,990.09
2022-11-01T05:45:39.726Z,990.07
2022-11-01T05:50:43.896Z,990.21
2022-11-01T05:55:48.075Z,990.28
2022-11-01T06:00:52.226Z,990.23
2022-11-01T06:05:56.342Z,990.16
2022-11-01T06:11:00.518Z,990.43
2022-11-01T06:16:04.664Z,990.75
2022-11-01T06:21:08.892Z,990.88
2022-11-01T06:26:13.009Z,991.05
2022-11-01T06:31:17.140Z,991.30
2022-11-01T06:36:21.355Z,991.36
2022-11-01T06:41:25.481Z,991.32
2022-11-01T06:46:29.623Z,991.20
2022-11-01T06:51:33.790Z,991.35
2022-11-01T06:56:37.997Z,991.71
2022-11-01T07:01:42.322Z,993.18
2022-11-01T07:06:46.270Z,995.31
2022-11-01T07:11:50.444Z,995.93
2022-11-01T07:16:54.634Z,995.85
2022-11-01T07:21:58.787Z,995.81
2022-11-01T07:27:02.938Z,996.48
2022-11-01T07:32:07.066Z,996.55
2022-11-01T07:37:11.348Z,996.52
2022-11-01T07:42:15.438Z,996.82
2022-11-01T07:47:19.577Z,996.97
2022-11-01T07:52:23.734Z,998.47
2022-11-01T07:57:27.880Z,998.91
2022-11-01T08:02:32.086Z,998.90
2022-11-01T08:07:36.215Z,999.07
2022-11-01T08:12:40.605Z,999.14
2022-11-01T08:17:44.507Z,999.12
2022-11-01T08:22:48.697Z,999.10
2022-11-01T08:27:52.825Z,999.19
2022-11-01T08:32:57.003Z,999.38
2022-11-01T08:38:01.152Z,999.38
2022-11-01T08:43:05.710Z,999.41
2022-11-01T08:48:09.469Z,999.47
2022-11-01T08:53:13.646Z,999.63
2022-11-01T08:58:15.908Z,1000.27
2022-11-01T09:03:20.090Z,1000.80
2022-11-01T09:08:24.238Z,1001.05
2022-11-01T09:13:30.642Z,1001.54
2022-11-01T09:18:32.546Z,1001.98
2022-11-01T09:23:36.718Z,1002.40
2022-11-01T09:28:38.976Z,1002.68
2022-11-01T09:33:43.178Z,1002.97
2022-11-01T09:38:47.288Z,1002.95
2022-11-01T09:43:51.496Z,1003.25
2022-11-01T09:48:55.600Z,1003.27
2022-11-01T09:53:59.912Z,1003.22
2022-11-01T09:59:03.936Z,1003.24
2022-11-01T10:04:08.159Z,1003.41
2022-11-01T10:09:12.248Z,1003.33
2022-11-01T10:14:16.422Z,1003.50
2022-11-01T10:19:20.599Z,1003.55
2022-11-01T10:24:24.794Z,1003.50
2022-11-01T10:29:28.889Z,1003.51
2022-11-01T10:34:36.045Z,1003.55
2022-11-01T10:39:53.930Z,1003.54
2022-11-01T10:44:41.393Z,1003.71
2022-11-01T10:50:04.985Z,1003.78
2022-11-01T10:54:49.716Z,1003.79
2022-11-01T10:59:53.866Z,1003.71
2022-11-01T11:04:58.042Z,1003.94
2022-11-01T11:15:06.333Z,1003.98
2022-11-01T11:20:10.517Z,1004.10
2022-11-01T11:25:14.684Z,1004.21
2022-11-01T11:30:18.841Z,1004.38
2022-11-01T11:35:22.975Z,1004.56
2022-11-01T11:40:27.185Z,1004.79
2022-11-01T11:45:31.331Z,1005.04
2022-11-01T11:50:35.458Z,1005.20
2022-11-01T11:55:39.772Z,1005.39
2022-11-01T12:00:43.781Z,1005.42
2022-11-01T12:05:47.963Z,1005.48
2022-11-01T12:10:52.092Z,1005.69
2022-11-01T12:15:56.232Z,1005.64
2022-11-01T12:21:00.455Z,1005.83
2022-11-01T12:26:04.569Z,1005.78
2022-11-01T12:31:08.777Z,1005.81
2022-11-01T12:41:17.041Z,1005.95
2022-11-01T12:46:21.204Z,1005.88
2022-11-01T12:51:25.409Z,1006.02
2022-11-01T12:56:29.522Z,1006.30
2022-11-01T13:01:33.869Z,1006.25
2022-11-01T13:06:37.866Z,1006.29
2022-11-01T13:11:42.033Z,1006.30
2022-11-01T13:16:46.139Z,1006.32
2022-11-01T13:21:50.366Z,1006.20
2022-11-01T13:26:54.501Z,1006.27
2022-11-01T13:31:58.646Z,1006.31
2022-11-01T13:37:02.809Z,1006.39
2022-11-01T13:42:06.936Z,1006.37
2022-11-01T13:47:11.154Z,1006.30
2022-11-01T13:52:15.329Z,1006.42
2022-11-01T13:57:44.880Z,1006.38
2022-11-01T14:02:23.962Z,1006.36
2022-11-01T14:07:27.801Z,1006.37
2022-11-01T14:12:31.949Z,1006.37
2022-11-01T14:17:36.093Z,1006.43
2022-11-01T14:22:40.385Z,1006.37
2022-11-01T14:27:48.745Z,1006.31
2022-11-01T14:32:48.571Z,1006.31
2022-11-01T14:37:52.744Z,1006.38
2022-11-01T14:42:56.849Z,1006.31
2022-11-01T14:48:01.550Z,1006.37
2022-11-01T14:53:05.222Z,1006.36
2022-11-01T14:58:07.557Z,1006.29
2022-11-01T15:03:11.666Z,1006.25
2022-11-01T15:08:15.826Z,1006.49
2022-11-01T15:13:19.996Z,1006.41
2022-11-01T15:18:24.160Z,1006.46
2022-11-01T15:23:28.308Z,1006.58
2022-11-01T15:28:32.432Z,1006.54
2022-11-01T15:33:36.601Z,1006.45
2022-11-01T15:38:40.742Z,1006.52
2022-11-01T15:43:45.890Z,1006.43
2022-11-01T15:48:49.041Z,1006.50
2022-11-01T15:53:53.269Z,1006.53
2022-11-01T15:58:57.400Z,1006.46
2022-11-01T16:04:01.517Z,1006.44
2022-11-01T16:09:05.696Z,1006.50
2022-11-01T16:14:09.901Z,1006.54
2022-11-01T16:19:14.041Z,1006.58
2022-11-01T16:24:18.203Z,1006.47
2022-11-01T16:29:22.340Z,1006.52
2022-11-01T16:34:26.520Z,1006.50
2022-11-01T16:39:30.686Z,1006.46
2022-11-01T16:44:34.818Z,1006.55
2022-11-01T16:49:38.991Z,1006.63
2022-11-01T16:54:43.170Z,1006.59
2022-11-01T16:59:47.299Z,1006.61
2022-11-01T17:04:51.493Z,1006.76
2022-11-01T17:09:55.601Z,1006.75
2022-11-01T17:14:59.820Z,1006.71
2022-11-01T17:20:03.977Z,1006.63
2022-11-01T17:25:08.092Z,1006.67
2022-11-01T17:30:12.289Z,1006.67
2022-11-01T17:35:16.600Z,1006.74
2022-11-01T17:40:20.649Z,1006.68
2022-11-01T17:45:24.716Z,1006.60
2022-11-01T17:50:28.952Z,1006.68
2022-11-01T17:55:33.048Z,1006.60
2022-11-01T18:00:37.212Z,1006.45
2022-11-01T18:05:41.407Z,1006.41
2022-11-01T18:10:45.540Z,1006.40
2022-11-01T18:15:49.722Z,1006.34
2022-11-01T18:20:53.913Z,1006.33
2022-11-01T18:25:58.031Z,1006.26
2022-11-01T18:31:02.223Z,1006.24
2022-11-01T18:36:06.334Z,1006.18
2022-11-01T18:41:13.174Z,1006.22
2022-11-01T18:46:26.280Z,1006.13
2022-11-01T18:51:18.845Z,1006.14
2022-11-01T18:56:23.010Z,1006.13
2022-11-01T19:01:27.323Z,1006.07
2022-11-01T19:11:35.499Z,1006.05
2022-11-01T19:16:39.613Z,1005.99
2022-11-01T19:21:43.788Z,1005.92
2022-11-01T19:26:47.953Z,1005.91
2022-11-01T19:31:52.133Z,1005.91
2022-11-01T19:36:56.246Z,1005.88
2022-11-01T19:42:00.448Z,1005.68
2022-11-01T19:47:04.630Z,1005.69
2022-11-01T19:52:08.725Z,1005.73
2022-11-01T19:57:13.004Z,1005.75
2022-11-01T20:02:17.224Z,1005.68
2022-11-01T20:07:21.253Z,1005.57
2022-11-01T20:12:25.381Z,1005.61
2022-11-01T20:17:29.525Z,1005.54
2022-11-01T20:22:33.730Z,1005.58
2022-11-01T20:27:36.012Z,1005.55
2022-11-01T20:32:40.131Z,1005.53
2022-11-01T20:37:44.268Z,1005.56
2022-11-01T20:42:48.488Z,1005.51
2022-11-01T20:47:52.632Z,1005.51
2022-11-01T20:52:56.783Z,1005.43
2022-11-01T20:58:01.317Z,1005.47
2022-11-01T21:03:05.518Z,1005.36
2022-11-01T21:08:09.275Z,1005.44
2022-11-01T21:13:17.640Z,1005.40
2022-11-01T21:18:17.566Z,1005.42
2022-11-01T21:23:21.782Z,1005.40
2022-11-01T21:28:25.937Z,1005.28
2022-11-01T21:33:30.051Z,1005.08
2022-11-01T21:38:34.216Z,1005.19
2022-11-01T21:43:38.409Z,1005.11
2022-11-01T21:48:42.570Z,1005.05
2022-11-01T21:53:46.676Z,1005.13
2022-11-01T21:58:50.883Z,1005.08
2022-11-01T22:03:55.035Z,1005.04
2022-11-01T22:08:59.220Z,1004.89
2022-11-01T22:14:03.358Z,1004.80
2022-11-01T22:19:07.537Z,1004.94
2022-11-01T22:24:11.714Z,1004.75
2022-11-01T22:29:15.820Z,1004.69
2022-11-01T22:34:19.981Z,1004.72
2022-11-01T22:39:24.143Z,1004.75
2022-11-01T22:44:28.303Z,1004.67
2022-11-01T22:49:32.480Z,1004.46
2022-11-01T22:54:36.643Z,1004.61
2022-11-01T22:59:40.774Z,1004.61
2022-11-01T23:04:44.965Z,1004.76
2022-11-01T23:09:49.143Z,1004.69
2022-11-01T23:14:53.275Z,1004.65
2022-11-01T23:19:57.456Z,1004.60
2022-11-01T23:25:01.650Z,1004.55
2022-11-01T23:30:05.769Z,1004.56
2022-11-01T23:35:09.924Z,1004.47
2022-11-01T23:40:14.086Z,1004.52
2022-11-01T23:45:18.243Z,1004.43
2022-11-01T23:50:22.418Z,1004.46
2022-11-01T23:55:26.562Z,1004.53
